createdAt,value
2019-03-01T00:02:16.002Z,9.50
2019-03-01T00:09:05.485Z,9.40
2019-03-01T00:15:47.590Z,9.40
2019-03-01T00:19:11.935Z,9.40
2019-03-01T00:25:54.484Z,9.40
2019-03-01T00:29:19.154Z,9.40
2019-03-01T00:35:55.592Z,9.40
2019-03-01T00:42:43.926Z,9.40
2019-03-01T00:49:14.104Z,9.40
2019-03-01T00:52:38.536Z,9.40
2019-03-01T00:59:09.027Z,9.40
2019-03-01T01:02:33.769Z,9.40
2019-03-01T01:09:06.787Z,9.40
2019-03-01T01:15:37.733Z,9.40
2019-03-01T01:19:02.211Z,9.30
2019-03-01T01:25:33.209Z,9.40
2019-03-01T01:28:57.553Z,9.40
2019-03-01T01:35:30.662Z,9.40
2019-03-01T01:42:01.821Z,9.30
2019-03-01T01:44:31.791Z,9.30
2019-03-01T01:51:02.316Z,9.20
2019-03-01T01:54:27.083Z,9.10
2019-03-01T02:00:57.511Z,9.10
2019-03-01T02:04:23.651Z,9.00
2019-03-01T02:10:53.950Z,9.00
2019-03-01T02:17:24.061Z,9.00
2019-03-01T02:20:48.985Z,9.10
2019-03-01T02:27:27.431Z,9.10
2019-03-01T02:30:51.985Z,9.10
2019-03-01T02:37:22.808Z,9.00
2019-03-01T02:40:47.282Z,9.00
2019-03-01T02:47:18.060Z,8.90
2019-03-01T02:53:49.232Z,9.00
2019-03-01T03:00:26.026Z,9.10
2019-03-01T03:06:58.279Z,9.10
2019-03-01T03:13:31.312Z,9.00
2019-03-01T03:16:55.794Z,9.10
2019-03-01T03:23:26.663Z,9.10
2019-03-01T03:26:26.292Z,9.10
2019-03-01T03:32:56.426Z,9.10
2019-03-01T03:36:20.561Z,9.10
2019-03-01T03:42:50.272Z,9.10
2019-03-01T03:46:05.261Z,9.20
2019-03-01T03:48:36.325Z,9.20
2019-03-01T03:55:09.060Z,9.30
2019-03-01T04:01:38.916Z,9.40
2019-03-01T04:08:09.040Z,9.40
2019-03-01T04:11:33.091Z,9.40
2019-03-01T04:18:03.151Z,9.30
2019-03-01T04:20:51.682Z,9.40
2019-03-01T04:27:21.859Z,9.30
2019-03-01T04:30:46.113Z,9.30
2019-03-01T04:37:17.063Z,9.40
2019-03-01T04:43:48.088Z,9.40
2019-03-01T04:46:37.180Z,9.30
2019-03-01T04:49:07.392Z,9.30
2019-03-01T04:55:38.427Z,9.30
2019-03-01T05:02:10.373Z,9.10
2019-03-01T05:08:41.214Z,8.90
2019-03-01T05:12:05.891Z,8.90
2019-03-01T05:18:36.405Z,8.90
2019-03-01T05:22:01.993Z,8.90
2019-03-01T05:28:34.320Z,8.90
2019-03-01T05:31:58.945Z,8.90
2019-03-01T05:38:29.645Z,8.80
2019-03-01T05:41:38.315Z,8.80
2019-03-01T05:48:09.419Z,8.80
2019-03-01T05:54:40.106Z,8.70
2019-03-01T05:58:04.664Z,8.70
2019-03-01T06:04:41.017Z,8.60
2019-03-01T06:08:05.701Z,8.50
2019-03-01T06:15:14.486Z,8.50
2019-03-01T06:21:54.140Z,8.50
2019-03-01T06:25:18.756Z,8.50
2019-03-01T06:32:12.147Z,8.60
2019-03-01T06:35:36.482Z,8.70
2019-03-01T06:42:32.591Z,9.00
2019-03-01T06:45:56.674Z,9.20
2019-03-01T06:52:27.782Z,9.20
2019-03-01T06:55:51.948Z,9.10
2019-03-01T07:02:24.360Z,9.00
2019-03-01T07:08:54.431Z,8.90
2019-03-01T07:12:18.980Z,8.80
2019-03-01T07:18:49.542Z,8.80
2019-03-01T07:25:20.253Z,8.70
2019-03-01T07:31:51.199Z,8.50
2019-03-01T07:38:21.984Z,8.40
2019-03-01T07:41:46.503Z,8.40
2019-03-01T07:48:17.210Z,8.40
2019-03-01T07:51:35.969Z,8.40
2019-03-01T07:54:06.034Z,8.40
2019-03-01T08:00:36.319Z,8.30
2019-03-01T08:07:06.178Z,8.30
2019-03-01T08:10:30.440Z,8.40
2019-03-01T08:17:00.560Z,8.40
2019-03-01T08:23:31.736Z,8.20
2019-03-01T08:26:57.171Z,8.20
2019-03-01T08:33:27.428Z,8.10
2019-03-01T08:36:51.418Z,7.90
2019-03-01T08:43:21.982Z,7.60
2019-03-01T08:46:46.886Z,7.30
2019-03-01T08:53:19.872Z,6.60
2019-03-01T08:59:50.511Z,6.30
2019-03-01T09:06:22.490Z,6.30
2019-03-01T09:12:53.157Z,6.20
2019-03-01T09:16:21.221Z,6.20
2019-03-01T09:22:52.024Z,6.40
2019-03-01T09:29:23.194Z,6.60
2019-03-01T09:32:47.376Z,6.60
2019-03-01T09:39:19.211Z,6.60
2019-03-01T09:42:43.798Z,6.50
2019-03-01T09:49:14.295Z,6.40
2019-03-01T09:52:39.696Z,6.20
2019-03-01T09:55:15.894Z,6.10
2019-03-01T10:01:46.925Z,6.20
2019-03-01T10:05:11.572Z,6.30
2019-03-01T10:11:43.005Z,6.20
2019-03-01T10:15:08.606Z,6.20
2019-03-01T10:21:38.790Z,6.20
2019-03-01T10:25:10.700Z,6.10
2019-03-01T10:31:42.206Z,6.20
2019-03-01T10:38:17.390Z,6.50
2019-03-01T10:41:41.606Z,6.80
2019-03-01T10:48:11.892Z,7.40
2019-03-01T10:54:43.716Z,7.30
2019-03-01T11:01:14.769Z,7.10
2019-03-01T11:07:45.821Z,6.90
2019-03-01T11:14:18.233Z,6.80
2019-03-01T11:16:48.254Z,6.60
2019-03-01T11:23:18.791Z,6.60
2019-03-01T11:29:49.719Z,6.80
2019-03-01T11:33:14.145Z,7.00
2019-03-01T11:39:44.803Z,7.20
2019-03-01T11:43:08.772Z,7.40
2019-03-01T11:49:42.093Z,7.30
2019-03-01T11:53:06.261Z,7.40
2019-03-01T11:55:36.275Z,7.40
2019-03-01T12:02:08.342Z,7.50
2019-03-01T12:08:41.277Z,7.50
2019-03-01T12:15:12.584Z,7.60
2019-03-01T12:18:37.854Z,7.60
2019-03-01T12:25:10.523Z,7.70
2019-03-01T12:28:34.365Z,7.80
2019-03-01T12:35:07.280Z,7.80
2019-03-01T12:38:31.554Z,7.80
2019-03-01T12:45:01.847Z,7.80
2019-03-01T12:51:32.286Z,7.70
2019-03-01T12:58:03.415Z,7.80
2019-03-01T13:04:34.405Z,7.90
2019-03-01T13:11:05.512Z,7.90
2019-03-01T13:17:37.303Z,7.90
2019-03-01T13:24:08.228Z,8.00
2019-03-01T13:27:32.760Z,8.00
2019-03-01T13:34:03.293Z,8.10
2019-03-01T13:40:34.363Z,8.10
2019-03-01T13:44:00.371Z,8.30
2019-03-01T13:50:31.152Z,8.50
2019-03-01T13:53:55.921Z,8.50
2019-03-01T14:00:27.039Z,8.50
2019-03-01T14:06:57.890Z,8.50
2019-03-01T14:10:22.580Z,8.50
2019-03-01T14:16:53.158Z,8.20
2019-03-01T14:23:25.002Z,8.10
2019-03-01T14:26:50.634Z,8.10
2019-03-01T14:33:25.385Z,8.20
2019-03-01T14:36:49.751Z,8.20
2019-03-01T14:43:23.947Z,8.20
2019-03-01T14:45:55.679Z,8.10
2019-03-01T14:49:21.979Z,8.10
2019-03-01T14:56:00.299Z,8.30
2019-03-01T14:59:24.546Z,8.40
2019-03-01T15:02:03.212Z,8.40
2019-03-01T15:08:31.931Z,8.20
2019-03-01T15:15:05.556Z,8.10
2019-03-01T15:21:37.597Z,8.00
2019-03-01T15:28:07.589Z,7.90
2019-03-01T15:34:39.092Z,7.90
2019-03-01T15:41:09.204Z,7.90
2019-03-01T15:44:33.646Z,7.80
2019-03-01T15:51:06.801Z,7.80
2019-03-01T15:57:37.830Z,7.70
2019-03-01T16:04:10.066Z,7.80
2019-03-01T16:10:41.216Z,7.70
2019-03-01T16:17:14.851Z,7.50
2019-03-01T16:20:39.054Z,7.30
2019-03-01T16:27:12.013Z,7.20
2019-03-01T16:33:43.333Z,7.10
2019-03-01T16:40:16.287Z,7.10
2019-03-01T16:46:47.015Z,7.10
2019-03-01T16:50:12.877Z,7.00
2019-03-01T16:56:44.257Z,7.00
2019-03-01T17:03:17.981Z,7.00
2019-03-01T17:05:47.724Z,7.00
2019-03-01T17:12:18.613Z,7.00
2019-03-01T17:15:45.496Z,7.00
2019-03-01T17:22:15.937Z,7.00
2019-03-01T17:28:46.807Z,6.90
2019-03-01T17:32:11.158Z,7.00
2019-03-01T17:38:45.904Z,7.00
2019-03-01T17:42:08.744Z,7.00
2019-03-01T17:48:48.506Z,7.00
2019-03-01T17:55:25.982Z,7.00
2019-03-01T18:01:56.722Z,6.90
2019-03-01T18:08:28.264Z,6.90
2019-03-01T18:11:52.406Z,6.90
2019-03-01T18:18:22.781Z,6.90
2019-03-01T18:24:53.411Z,6.90
2019-03-01T18:31:28.301Z,6.90
2019-03-01T18:37:56.908Z,6.80
2019-03-01T18:41:24.109Z,6.80
2019-03-01T18:47:53.168Z,6.80
2019-03-01T18:51:21.352Z,6.80
2019-03-01T18:57:52.281Z,6.80
2019-03-01T19:01:16.450Z,6.80
2019-03-01T19:07:47.221Z,6.70
2019-03-01T19:10:20.069Z,6.70
2019-03-01T19:16:50.476Z,6.70
2019-03-01T19:23:21.168Z,6.70
2019-03-01T19:29:51.541Z,6.60
2019-03-01T19:36:22.453Z,6.60
2019-03-01T19:42:53.017Z,6.60
2019-03-01T19:49:23.888Z,6.60
2019-03-01T19:52:50.542Z,6.50
2019-03-01T19:59:20.541Z,6.50
2019-03-01T20:02:44.569Z,6.40
2019-03-01T20:09:15.591Z,6.50
2019-03-01T20:15:47.355Z,6.50
2019-03-01T20:22:18.645Z,6.50
2019-03-01T20:28:51.424Z,6.50
2019-03-01T20:32:16.573Z,6.60
2019-03-01T20:38:47.455Z,6.60
2019-03-01T20:45:30.029Z,6.60
2019-03-01T20:48:53.552Z,6.70
2019-03-01T20:55:24.472Z,6.70
2019-03-01T20:58:49.052Z,6.60
2019-03-01T21:05:19.863Z,6.60
2019-03-01T21:11:50.517Z,6.60
2019-03-01T21:18:21.160Z,6.60
2019-03-01T21:24:51.698Z,6.60
2019-03-01T21:31:22.403Z,6.60
2019-03-01T21:37:53.312Z,6.60
2019-03-01T21:44:23.862Z,6.70
2019-03-01T21:47:48.938Z,6.70
2019-03-01T21:54:20.208Z,6.80
2019-03-01T21:57:44.434Z,6.70
2019-03-01T22:04:15.182Z,6.80
2019-03-01T22:07:39.622Z,6.80
2019-03-01T22:14:10.824Z,6.80
2019-03-01T22:20:44.910Z,6.80
2019-03-01T22:24:08.574Z,6.90
2019-03-01T22:30:38.824Z,6.90
2019-03-01T22:37:10.048Z,6.90
2019-03-01T22:43:40.603Z,6.90
2019-03-01T22:50:16.219Z,6.80
2019-03-01T22:53:42.054Z,6.80
2019-03-01T23:00:19.561Z,6.60
2019-03-01T23:03:43.745Z,6.40
2019-03-01T23:10:14.774Z,6.40
2019-03-01T23:13:13.169Z,6.50
2019-03-01T23:15:43.471Z,6.50
2019-03-01T23:22:14.510Z,6.50
2019-03-01T23:28:44.666Z,6.50
2019-03-01T23:35:14.714Z,6.50
2019-03-01T23:38:40.257Z,6.40
2019-03-01T23:45:13.831Z,6.40
2019-03-01T23:48:36.951Z,6.40
2019-03-01T23:55:15.644Z,6.40
2019-03-01T23:57:44.184Z,6.40
